sensor_id;sensor_type;location;lat;lon;timestamp;P1;durP1;ratioP1;P2;durP2;ratioP2
71172;SDS011;58875;51.996;4.504;2023-06-22T00:02:13;20.09;;;19.93;;
71172;SDS011;58875;51.996;4.504;2023-06-22T00:04:39;20.37;;;20.08;;
71172;SDS011;58875;51.996;4.504;2023-06-22T00:07:05;19.81;;;19.75;;
71172;SDS011;58875;51.996;4.504;2023-06-22T00:09:31;19.84;;;19.72;;
71172;SDS011;58875;51.996;4.504;2023-06-22T00:11:57;20.39;;;20.06;;
71172;SDS011;58875;51.996;4.504;2023-06-22T00:14:22;20.27;;;20.13;;
71172;SDS011;58875;51.996;4.504;2023-06-22T00:16:48;20.60;;;20.42;;
71172;SDS011;58875;51.996;4.504;2023-06-22T00:19:14;20.34;;;20.13;;
71172;SDS011;58875;51.996;4.504;2023-06-22T00:21:41;19.74;;;19.51;;
71172;SDS011;58875;51.996;4.504;2023-06-22T00:24:08;20.29;;;20.09;;
71172;SDS011;58875;51.996;4.504;2023-06-22T00:26:33;20.74;;;20.52;;
71172;SDS011;58875;51.996;4.504;2023-06-22T00:28:59;20.86;;;20.55;;
71172;SDS011;58875;51.996;4.504;2023-06-22T00:31:24;20.50;;;20.39;;
71172;SDS011;58875;51.996;4.504;2023-06-22T00:33:50;21.00;;;20.93;;
71172;SDS011;58875;51.996;4.504;2023-06-22T00:36:16;20.57;;;20.24;;
71172;SDS011;58875;51.996;4.504;2023-06-22T00:38:44;21.00;;;20.65;;
71172;SDS011;58875;51.996;4.504;2023-06-22T00:41:09;20.85;;;20.49;;
71172;SDS011;58875;51.996;4.504;2023-06-22T00:43:35;20.70;;;20.44;;
71172;SDS011;58875;51.996;4.504;2023-06-22T00:46:01;21.97;;;21.62;;
71172;SDS011;58875;51.996;4.504;2023-06-22T00:48:26;21.99;;;21.65;;
71172;SDS011;58875;51.996;4.504;2023-06-22T00:50:52;22.78;;;22.53;;
71172;SDS011;58875;51.996;4.504;2023-06-22T00:53:20;23.33;;;23.07;;
71172;SDS011;58875;51.996;4.504;2023-06-22T00:55:46;22.61;;;22.26;;
71172;SDS011;58875;51.996;4.504;2023-06-22T00:58:13;21.87;;;21.61;;
71172;SDS011;58875;51.996;4.504;2023-06-22T01:00:39;22.20;;;21.77;;
71172;SDS011;58875;51.996;4.504;2023-06-22T01:03:06;23.60;;;23.04;;
71172;SDS011;58875;51.996;4.504;2023-06-22T01:05:35;22.88;;;22.50;;
71172;SDS011;58875;51.996;4.504;2023-06-22T01:11:10;22.34;;;22.10;;
71172;SDS011;58875;51.996;4.504;2023-06-22T01:16:29;21.85;;;21.51;;
71172;SDS011;58875;51.996;4.504;2023-06-22T01:18:59;22.01;;;21.67;;
71172;SDS011;58875;51.996;4.504;2023-06-22T01:21:28;22.91;;;22.53;;
71172;SDS011;58875;51.996;4.504;2023-06-22T01:27:32;22.14;;;21.90;;
71172;SDS011;58875;51.996;4.504;2023-06-22T01:29:36;23.10;;;22.63;;
71172;SDS011;58875;51.996;4.504;2023-06-22T01:32:04;22.40;;;22.11;;
71172;SDS011;58875;51.996;4.504;2023-06-22T01:34:31;23.02;;;22.74;;
71172;SDS011;58875;51.996;4.504;2023-06-22T01:36:59;22.60;;;22.31;;
71172;SDS011;58875;51.996;4.504;2023-06-22T01:39:27;23.02;;;22.74;;
71172;SDS011;58875;51.996;4.504;2023-06-22T01:41:55;22.50;;;22.14;;
71172;SDS011;58875;51.996;4.504;2023-06-22T01:44:22;22.50;;;22.24;;
71172;SDS011;58875;51.996;4.504;2023-06-22T01:46:51;23.11;;;22.72;;
71172;SDS011;58875;51.996;4.504;2023-06-22T01:49:17;23.23;;;22.85;;
71172;SDS011;58875;51.996;4.504;2023-06-22T01:51:43;23.11;;;22.97;;
71172;SDS011;58875;51.996;4.504;2023-06-22T01:54:09;23.38;;;23.05;;
71172;SDS011;58875;51.996;4.504;2023-06-22T01:56:34;23.89;;;23.61;;
71172;SDS011;58875;51.996;4.504;2023-06-22T01:59:04;23.59;;;23.31;;
71172;SDS011;58875;51.996;4.504;2023-06-22T02:01:41;23.50;;;23.26;;
71172;SDS011;58875;51.996;4.504;2023-06-22T02:04:18;24.12;;;23.45;;
71172;SDS011;58875;51.996;4.504;2023-06-22T02:06:50;24.11;;;23.64;;
71172;SDS011;58875;51.996;4.504;2023-06-22T02:09:21;22.92;;;22.51;;
71172;SDS011;58875;51.996;4.504;2023-06-22T02:11:50;23.08;;;22.93;;
71172;SDS011;58875;51.996;4.504;2023-06-22T02:14:20;23.47;;;23.19;;
71172;SDS011;58875;51.996;4.504;2023-06-22T02:16:48;23.18;;;22.77;;
71172;SDS011;58875;51.996;4.504;2023-06-22T02:19:16;23.29;;;22.98;;
71172;SDS011;58875;51.996;4.504;2023-06-22T02:21:44;23.72;;;23.49;;
71172;SDS011;58875;51.996;4.504;2023-06-22T02:24:10;23.53;;;23.14;;
71172;SDS011;58875;51.996;4.504;2023-06-22T02:26:35;25.17;;;24.57;;
71172;SDS011;58875;51.996;4.504;2023-06-22T02:29:04;24.31;;;23.95;;
71172;SDS011;58875;51.996;4.504;2023-06-22T02:31:31;24.53;;;24.15;;
71172;SDS011;58875;51.996;4.504;2023-06-22T02:33:57;24.03;;;23.57;;
71172;SDS011;58875;51.996;4.504;2023-06-22T02:36:23;25.34;;;25.05;;
71172;SDS011;58875;51.996;4.504;2023-06-22T02:38:50;25.43;;;25.10;;
71172;SDS011;58875;51.996;4.504;2023-06-22T02:41:15;25.46;;;25.20;;
71172;SDS011;58875;51.996;4.504;2023-06-22T02:43:44;25.45;;;25.19;;
71172;SDS011;58875;51.996;4.504;2023-06-22T02:46:10;26.79;;;26.27;;
71172;SDS011;58875;51.996;4.504;2023-06-22T02:48:38;26.77;;;26.26;;
71172;SDS011;58875;51.996;4.504;2023-06-22T02:51:06;27.48;;;26.84;;
71172;SDS011;58875;51.996;4.504;2023-06-22T02:53:32;26.79;;;26.33;;
71172;SDS011;58875;51.996;4.504;2023-06-22T02:55:58;27.23;;;26.88;;
71172;SDS011;58875;51.996;4.504;2023-06-22T02:58:26;26.90;;;26.57;;
71172;SDS011;58875;51.996;4.504;2023-06-22T03:00:52;27.60;;;27.10;;
71172;SDS011;58875;51.996;4.504;2023-06-22T03:03:18;27.65;;;27.17;;
71172;SDS011;58875;51.996;4.504;2023-06-22T03:05:44;27.64;;;26.94;;
71172;SDS011;58875;51.996;4.504;2023-06-22T03:08:10;28.00;;;27.08;;
71172;SDS011;58875;51.996;4.504;2023-06-22T03:10:38;26.56;;;26.06;;
71172;SDS011;58875;51.996;4.504;2023-06-22T03:13:04;27.50;;;27.20;;
71172;SDS011;58875;51.996;4.504;2023-06-22T03:15:30;27.75;;;27.07;;
71172;SDS011;58875;51.996;4.504;2023-06-22T03:17:56;27.16;;;26.54;;
71172;SDS011;58875;51.996;4.504;2023-06-22T03:20:22;27.61;;;26.99;;
71172;SDS011;58875;51.996;4.504;2023-06-22T03:22:48;27.69;;;27.11;;
71172;SDS011;58875;51.996;4.504;2023-06-22T03:25:14;27.91;;;27.48;;
71172;SDS011;58875;51.996;4.504;2023-06-22T03:27:40;28.19;;;27.81;;
71172;SDS011;58875;51.996;4.504;2023-06-22T03:30:07;30.28;;;29.61;;
71172;SDS011;58875;51.996;4.504;2023-06-22T03:32:34;29.93;;;29.44;;
71172;SDS011;58875;51.996;4.504;2023-06-22T03:35:00;30.87;;;30.08;;
71172;SDS011;58875;51.996;4.504;2023-06-22T03:37:26;31.83;;;30.86;;
71172;SDS011;58875;51.996;4.504;2023-06-22T03:39:52;29.79;;;29.20;;
71172;SDS011;58875;51.996;4.504;2023-06-22T03:42:18;30.01;;;29.52;;
71172;SDS011;58875;51.996;4.504;2023-06-22T03:44:43;30.55;;;30.08;;
71172;SDS011;58875;51.996;4.504;2023-06-22T03:47:09;30.54;;;29.98;;
71172;SDS011;58875;51.996;4.504;2023-06-22T03:49:35;30.10;;;29.61;;
71172;SDS011;58875;51.996;4.504;2023-06-22T03:52:01;29.54;;;29.22;;
71172;SDS011;58875;51.996;4.504;2023-06-22T03:54:28;30.01;;;29.42;;
71172;SDS011;58875;51.996;4.504;2023-06-22T03:56:56;28.78;;;28.53;;
71172;SDS011;58875;51.996;4.504;2023-06-22T03:59:22;30.04;;;29.63;;
71172;SDS011;58875;51.996;4.504;2023-06-22T04:01:50;30.65;;;30.23;;
71172;SDS011;58875;51.996;4.504;2023-06-22T04:04:17;30.35;;;29.87;;
71172;SDS011;58875;51.996;4.504;2023-06-22T04:06:43;30.43;;;29.77;;
71172;SDS011;58875;51.996;4.504;2023-06-22T04:09:08;29.64;;;29.07;;
71172;SDS011;58875;51.996;4.504;2023-06-22T04:11:34;30.05;;;29.32;;
71172;SDS011;58875;51.996;4.504;2023-06-22T04:14:02;30.63;;;30.33;;
71172;SDS011;58875;51.996;4.504;2023-06-22T04:16:27;30.30;;;29.83;;
71172;SDS011;58875;51.996;4.504;2023-06-22T04:18:55;32.16;;;30.96;;
71172;SDS011;58875;51.996;4.504;2023-06-22T04:21:21;30.93;;;30.47;;
71172;SDS011;58875;51.996;4.504;2023-06-22T04:23:47;30.23;;;29.88;;
71172;SDS011;58875;51.996;4.504;2023-06-22T04:26:13;31.22;;;30.71;;
71172;SDS011;58875;51.996;4.504;2023-06-22T04:28:46;29.90;;;29.38;;
71172;SDS011;58875;51.996;4.504;2023-06-22T04:31:19;30.93;;;30.37;;
71172;SDS011;58875;51.996;4.504;2023-06-22T04:33:57;30.32;;;30.06;;
71172;SDS011;58875;51.996;4.504;2023-06-22T04:36:32;29.77;;;29.62;;
71172;SDS011;58875;51.996;4.504;2023-06-22T04:39:04;30.47;;;30.14;;
71172;SDS011;58875;51.996;4.504;2023-06-22T04:42:01;29.71;;;29.39;;
71172;SDS011;58875;51.996;4.504;2023-06-22T04:44:27;29.06;;;28.79;;
71172;SDS011;58875;51.996;4.504;2023-06-22T04:46:59;30.07;;;29.61;;
71172;SDS011;58875;51.996;4.504;2023-06-22T04:49:27;29.54;;;29.10;;
71172;SDS011;58875;51.996;4.504;2023-06-22T04:52:03;29.87;;;29.38;;
71172;SDS011;58875;51.996;4.504;2023-06-22T04:54:30;29.46;;;29.16;;
71172;SDS011;58875;51.996;4.504;2023-06-22T04:57:02;29.14;;;28.77;;
71172;SDS011;58875;51.996;4.504;2023-06-22T04:59:30;29.53;;;29.06;;
71172;SDS011;58875;51.996;4.504;2023-06-22T05:01:57;29.52;;;29.19;;
71172;SDS011;58875;51.996;4.504;2023-06-22T05:04:23;28.88;;;28.72;;
71172;SDS011;58875;51.996;4.504;2023-06-22T05:06:50;27.63;;;27.21;;
71172;SDS011;58875;51.996;4.504;2023-06-22T05:09:17;27.76;;;27.48;;
71172;SDS011;58875;51.996;4.504;2023-06-22T05:11:43;26.83;;;26.62;;
71172;SDS011;58875;51.996;4.504;2023-06-22T05:14:09;27.05;;;26.60;;
71172;SDS011;58875;51.996;4.504;2023-06-22T05:16:36;26.42;;;26.15;;
71172;SDS011;58875;51.996;4.504;2023-06-22T05:19:02;25.85;;;25.63;;
71172;SDS011;58875;51.996;4.504;2023-06-22T05:21:29;25.43;;;25.16;;
71172;SDS011;58875;51.996;4.504;2023-06-22T05:23:58;24.29;;;24.20;;
71172;SDS011;58875;51.996;4.504;2023-06-22T05:26:25;24.66;;;24.43;;
71172;SDS011;58875;51.996;4.504;2023-06-22T05:28:52;22.47;;;22.44;;
71172;SDS011;58875;51.996;4.504;2023-06-22T05:31:19;23.00;;;22.93;;
71172;SDS011;58875;51.996;4.504;2023-06-22T05:33:45;22.62;;;22.54;;
71172;SDS011;58875;51.996;4.504;2023-06-22T05:36:12;22.91;;;22.63;;
71172;SDS011;58875;51.996;4.504;2023-06-22T05:38:44;22.74;;;22.53;;
71172;SDS011;58875;51.996;4.504;2023-06-22T05:41:10;23.13;;;22.96;;
71172;SDS011;58875;51.996;4.504;2023-06-22T05:43:35;22.94;;;22.84;;
71172;SDS011;58875;51.996;4.504;2023-06-22T05:46:01;21.69;;;21.60;;
71172;SDS011;58875;51.996;4.504;2023-06-22T05:48:28;22.00;;;21.89;;
71172;SDS011;58875;51.996;4.504;2023-06-22T05:50:54;22.52;;;22.26;;
71172;SDS011;58875;51.996;4.504;2023-06-22T05:53:20;23.06;;;22.96;;
71172;SDS011;58875;51.996;4.504;2023-06-22T05:55:46;21.89;;;21.80;;
71172;SDS011;58875;51.996;4.504;2023-06-22T05:58:12;23.08;;;22.84;;
71172;SDS011;58875;51.996;4.504;2023-06-22T06:00:56;22.13;;;21.73;;
71172;SDS011;58875;51.996;4.504;2023-06-22T06:03:22;22.45;;;22.20;;
71172;SDS011;58875;51.996;4.504;2023-06-22T06:06:03;21.38;;;21.28;;
71172;SDS011;58875;51.996;4.504;2023-06-22T06:08:29;21.92;;;21.71;;
71172;SDS011;58875;51.996;4.504;2023-06-22T06:10:57;22.99;;;22.77;;
71172;SDS011;58875;51.996;4.504;2023-06-22T06:13:23;22.09;;;22.00;;
71172;SDS011;58875;51.996;4.504;2023-06-22T06:15:51;21.66;;;21.60;;
71172;SDS011;58875;51.996;4.504;2023-06-22T06:18:22;22.25;;;22.22;;
71172;SDS011;58875;51.996;4.504;2023-06-22T06:20:48;21.94;;;21.89;;
71172;SDS011;58875;51.996;4.504;2023-06-22T06:23:14;22.10;;;22.05;;
71172;SDS011;58875;51.996;4.504;2023-06-22T06:25:47;22.49;;;22.41;;
71172;SDS011;58875;51.996;4.504;2023-06-22T06:28:26;22.04;;;21.89;;
71172;SDS011;58875;51.996;4.504;2023-06-22T06:30:52;22.46;;;22.42;;
71172;SDS011;58875;51.996;4.504;2023-06-22T06:33:18;21.45;;;21.44;;
71172;SDS011;58875;51.996;4.504;2023-06-22T06:35:44;22.10;;;22.02;;
71172;SDS011;58875;51.996;4.504;2023-06-22T06:38:09;21.88;;;21.77;;
71172;SDS011;58875;51.996;4.504;2023-06-22T06:40:38;21.24;;;21.15;;
71172;SDS011;58875;51.996;4.504;2023-06-22T06:43:03;21.19;;;20.68;;
71172;SDS011;58875;51.996;4.504;2023-06-22T06:45:28;21.25;;;21.16;;
71172;SDS011;58875;51.996;4.504;2023-06-22T06:47:56;20.55;;;20.37;;
71172;SDS011;58875;51.996;4.504;2023-06-22T06:50:21;19.54;;;19.53;;
71172;SDS011;58875;51.996;4.504;2023-06-22T06:52:47;20.67;;;20.51;;
71172;SDS011;58875;51.996;4.504;2023-06-22T06:55:16;18.92;;;18.92;;
71172;SDS011;58875;51.996;4.504;2023-06-22T06:57:42;18.49;;;18.39;;
71172;SDS011;58875;51.996;4.504;2023-06-22T07:00:09;17.99;;;17.75;;
71172;SDS011;58875;51.996;4.504;2023-06-22T07:02:37;17.84;;;17.74;;
71172;SDS011;58875;51.996;4.504;2023-06-22T07:05:07;16.50;;;16.50;;
71172;SDS011;58875;51.996;4.504;2023-06-22T07:07:34;16.68;;;16.68;;
71172;SDS011;58875;51.996;4.504;2023-06-22T07:10:02;16.15;;;16.15;;
71172;SDS011;58875;51.996;4.504;2023-06-22T07:12:29;15.89;;;15.89;;
71172;SDS011;58875;51.996;4.504;2023-06-22T07:15:00;15.32;;;15.32;;
71172;SDS011;58875;51.996;4.504;2023-06-22T07:17:35;15.84;;;15.80;;
71172;SDS011;58875;51.996;4.504;2023-06-22T07:20:02;16.03;;;16.03;;
71172;SDS011;58875;51.996;4.504;2023-06-22T07:22:32;14.39;;;14.39;;
71172;SDS011;58875;51.996;4.504;2023-06-22T07:25:01;14.42;;;14.42;;
71172;SDS011;58875;51.996;4.504;2023-06-22T07:27:36;12.49;;;12.49;;
71172;SDS011;58875;51.996;4.504;2023-06-22T07:30:06;11.35;;;11.31;;
71172;SDS011;58875;51.996;4.504;2023-06-22T07:32:36;10.26;;;10.26;;
71172;SDS011;58875;51.996;4.504;2023-06-22T07:35:02;10.29;;;10.29;;
71172;SDS011;58875;51.996;4.504;2023-06-22T07:37:32;11.41;;;11.41;;
71172;SDS011;58875;51.996;4.504;2023-06-22T07:39:59;10.31;;;10.24;;
71172;SDS011;58875;51.996;4.504;2023-06-22T07:42:25;10.47;;;10.39;;
71172;SDS011;58875;51.996;4.504;2023-06-22T07:44:51;10.95;;;10.84;;
71172;SDS011;58875;51.996;4.504;2023-06-22T07:47:17;9.59;;;9.57;;
71172;SDS011;58875;51.996;4.504;2023-06-22T07:49:46;8.22;;;8.22;;
71172;SDS011;58875;51.996;4.504;2023-06-22T07:52:11;7.96;;;7.96;;
71172;SDS011;58875;51.996;4.504;2023-06-22T07:54:37;8.39;;;8.39;;
71172;SDS011;58875;51.996;4.504;2023-06-22T07:57:03;8.14;;;8.14;;
71172;SDS011;58875;51.996;4.504;2023-06-22T07:59:29;7.81;;;7.81;;
71172;SDS011;58875;51.996;4.504;2023-06-22T08:01:55;7.31;;;7.28;;
71172;SDS011;58875;51.996;4.504;2023-06-22T08:04:20;7.38;;;7.38;;
71172;SDS011;58875;51.996;4.504;2023-06-22T08:06:46;6.42;;;6.42;;
71172;SDS011;58875;51.996;4.504;2023-06-22T08:09:11;6.99;;;6.98;;
71172;SDS011;58875;51.996;4.504;2023-06-22T08:11:37;7.84;;;7.83;;
71172;SDS011;58875;51.996;4.504;2023-06-22T08:14:03;7.67;;;7.67;;
71172;SDS011;58875;51.996;4.504;2023-06-22T08:16:28;7.42;;;7.39;;
71172;SDS011;58875;51.996;4.504;2023-06-22T08:18:54;7.90;;;7.90;;
71172;SDS011;58875;51.996;4.504;2023-06-22T08:21:20;7.67;;;7.67;;
71172;SDS011;58875;51.996;4.504;2023-06-22T08:23:48;8.40;;;8.38;;
71172;SDS011;58875;51.996;4.504;2023-06-22T08:26:14;7.90;;;7.90;;
71172;SDS011;58875;51.996;4.504;2023-06-22T08:28:40;7.44;;;7.44;;
71172;SDS011;58875;51.996;4.504;2023-06-22T08:31:05;6.81;;;6.81;;
71172;SDS011;58875;51.996;4.504;2023-06-22T08:33:31;6.99;;;6.99;;
71172;SDS011;58875;51.996;4.504;2023-06-22T08:35:57;6.31;;;6.31;;
71172;SDS011;58875;51.996;4.504;2023-06-22T08:38:23;6.09;;;6.09;;
71172;SDS011;58875;51.996;4.504;2023-06-22T08:40:49;5.71;;;5.71;;
71172;SDS011;58875;51.996;4.504;2023-06-22T08:43:15;6.59;;;6.59;;
71172;SDS011;58875;51.996;4.504;2023-06-22T08:45:40;6.57;;;6.57;;
71172;SDS011;58875;51.996;4.504;2023-06-22T08:48:06;6.09;;;6.09;;
71172;SDS011;58875;51.996;4.504;2023-06-22T08:50:31;5.63;;;5.62;;
71172;SDS011;58875;51.996;4.504;2023-06-22T08:52:57;5.88;;;5.87;;
71172;SDS011;58875;51.996;4.504;2023-06-22T08:55:22;6.45;;;6.45;;
71172;SDS011;58875;51.996;4.504;2023-06-22T08:57:54;6.87;;;6.87;;
71172;SDS011;58875;51.996;4.504;2023-06-22T09:00:20;7.25;;;7.25;;
71172;SDS011;58875;51.996;4.504;2023-06-22T09:02:46;9.16;;;9.16;;
71172;SDS011;58875;51.996;4.504;2023-06-22T09:05:12;8.58;;;8.58;;
71172;SDS011;58875;51.996;4.504;2023-06-22T09:07:38;9.18;;;9.18;;
71172;SDS011;58875;51.996;4.504;2023-06-22T09:10:05;10.44;;;10.44;;
71172;SDS011;58875;51.996;4.504;2023-06-22T09:12:34;10.51;;;10.51;;
71172;SDS011;58875;51.996;4.504;2023-06-22T09:15:01;12.51;;;12.51;;
71172;SDS011;58875;51.996;4.504;2023-06-22T09:17:28;12.28;;;12.28;;
71172;SDS011;58875;51.996;4.504;2023-06-22T09:19:54;10.63;;;10.63;;
71172;SDS011;58875;51.996;4.504;2023-06-22T09:22:20;10.52;;;10.52;;
71172;SDS011;58875;51.996;4.504;2023-06-22T09:24:45;11.42;;;11.42;;
71172;SDS011;58875;51.996;4.504;2023-06-22T09:27:11;12.05;;;12.05;;
71172;SDS011;58875;51.996;4.504;2023-06-22T09:29:36;13.66;;;13.66;;
71172;SDS011;58875;51.996;4.504;2023-06-22T09:32:02;10.41;;;10.41;;
71172;SDS011;58875;51.996;4.504;2023-06-22T09:34:28;8.87;;;8.87;;
71172;SDS011;58875;51.996;4.504;2023-06-22T09:36:53;10.93;;;10.93;;
71172;SDS011;58875;51.996;4.504;2023-06-22T09:39:20;13.06;;;13.06;;
71172;SDS011;58875;51.996;4.504;2023-06-22T09:41:45;12.71;;;12.71;;
71172;SDS011;58875;51.996;4.504;2023-06-22T09:44:18;11.45;;;11.45;;
71172;SDS011;58875;51.996;4.504;2023-06-22T09:46:46;10.85;;;10.85;;
71172;SDS011;58875;51.996;4.504;2023-06-22T09:49:18;13.68;;;13.68;;
71172;SDS011;58875;51.996;4.504;2023-06-22T09:51:43;11.91;;;11.91;;
71172;SDS011;58875;51.996;4.504;2023-06-22T09:54:12;10.36;;;10.36;;
71172;SDS011;58875;51.996;4.504;2023-06-22T09:56:37;11.49;;;11.49;;
71172;SDS011;58875;51.996;4.504;2023-06-22T09:59:09;13.07;;;13.07;;
71172;SDS011;58875;51.996;4.504;2023-06-22T10:01:37;13.02;;;13.02;;
71172;SDS011;58875;51.996;4.504;2023-06-22T10:04:06;12.28;;;12.28;;
71172;SDS011;58875;51.996;4.504;2023-06-22T10:06:31;10.74;;;10.74;;
71172;SDS011;58875;51.996;4.504;2023-06-22T10:08:56;9.11;;;9.11;;
71172;SDS011;58875;51.996;4.504;2023-06-22T10:11:22;11.45;;;11.45;;
71172;SDS011;58875;51.996;4.504;2023-06-22T10:13:54;11.90;;;11.90;;
71172;SDS011;58875;51.996;4.504;2023-06-22T10:16:23;12.01;;;12.01;;
71172;SDS011;58875;51.996;4.504;2023-06-22T10:18:51;12.11;;;12.11;;
71172;SDS011;58875;51.996;4.504;2023-06-22T10:21:17;10.82;;;10.82;;
71172;SDS011;58875;51.996;4.504;2023-06-22T10:23:42;11.49;;;11.49;;
71172;SDS011;58875;51.996;4.504;2023-06-22T10:26:08;12.22;;;12.22;;
71172;SDS011;58875;51.996;4.504;2023-06-22T10:28:34;12.04;;;12.04;;
71172;SDS011;58875;51.996;4.504;2023-06-22T10:30:59;11.47;;;11.47;;
71172;SDS011;58875;51.996;4.504;2023-06-22T10:33:25;11.25;;;11.25;;
71172;SDS011;58875;51.996;4.504;2023-06-22T10:35:50;11.70;;;11.70;;
71172;SDS011;58875;51.996;4.504;2023-06-22T10:38:16;13.59;;;13.59;;
71172;SDS011;58875;51.996;4.504;2023-06-22T10:40:41;12.66;;;12.66;;
71172;SDS011;58875;51.996;4.504;2023-06-22T10:43:07;12.97;;;12.97;;
71172;SDS011;58875;51.996;4.504;2023-06-22T10:45:32;13.88;;;13.88;;
71172;SDS011;58875;51.996;4.504;2023-06-22T10:47:58;15.66;;;15.66;;
71172;SDS011;58875;51.996;4.504;2023-06-22T10:50:30;15.49;;;15.49;;
71172;SDS011;58875;51.996;4.504;2023-06-22T10:52:55;16.02;;;16.02;;
71172;SDS011;58875;51.996;4.504;2023-06-22T10:55:28;13.87;;;13.87;;
71172;SDS011;58875;51.996;4.504;2023-06-22T10:57:54;13.02;;;13.02;;
71172;SDS011;58875;51.996;4.504;2023-06-22T11:00:19;14.37;;;14.37;;
71172;SDS011;58875;51.996;4.504;2023-06-22T11:02:48;12.49;;;12.49;;
71172;SDS011;58875;51.996;4.504;2023-06-22T11:05:13;12.86;;;12.86;;
71172;SDS011;58875;51.996;4.504;2023-06-22T11:07:45;13.48;;;13.48;;
71172;SDS011;58875;51.996;4.504;2023-06-22T11:10:13;13.03;;;13.03;;
71172;SDS011;58875;51.996;4.504;2023-06-22T11:12:39;12.99;;;12.99;;
71172;SDS011;58875;51.996;4.504;2023-06-22T11:15:08;13.10;;;13.10;;
71172;SDS011;58875;51.996;4.504;2023-06-22T11:17:34;12.84;;;12.84;;
71172;SDS011;58875;51.996;4.504;2023-06-22T11:20:05;12.05;;;12.05;;
71172;SDS011;58875;51.996;4.504;2023-06-22T11:22:39;10.08;;;10.08;;
71172;SDS011;58875;51.996;4.504;2023-06-22T11:25:05;11.56;;;11.56;;
71172;SDS011;58875;51.996;4.504;2023-06-22T11:27:36;14.04;;;14.04;;
71172;SDS011;58875;51.996;4.504;2023-06-22T11:30:02;15.51;;;15.51;;
71172;SDS011;58875;51.996;4.504;2023-06-22T11:32:29;13.79;;;13.79;;
71172;SDS011;58875;51.996;4.504;2023-06-22T11:34:55;12.32;;;12.32;;
71172;SDS011;58875;51.996;4.504;2023-06-22T11:37:28;10.93;;;10.93;;
71172;SDS011;58875;51.996;4.504;2023-06-22T11:40:11;10.98;;;10.98;;
71172;SDS011;58875;51.996;4.504;2023-06-22T11:42:37;11.32;;;11.32;;
71172;SDS011;58875;51.996;4.504;2023-06-22T11:45:04;12.77;;;12.77;;
71172;SDS011;58875;51.996;4.504;2023-06-22T11:47:33;13.23;;;13.23;;
71172;SDS011;58875;51.996;4.504;2023-06-22T11:49:59;14.08;;;14.08;;
71172;SDS011;58875;51.996;4.504;2023-06-22T11:52:30;14.76;;;14.76;;
71172;SDS011;58875;51.996;4.504;2023-06-22T11:55:07;15.46;;;15.46;;
71172;SDS011;58875;51.996;4.504;2023-06-22T11:57:34;15.30;;;15.30;;
71172;SDS011;58875;51.996;4.504;2023-06-22T12:00:16;14.87;;;14.87;;
71172;SDS011;58875;51.996;4.504;2023-06-22T12:02:43;14.70;;;14.70;;
71172;SDS011;58875;51.996;4.504;2023-06-22T12:05:10;14.80;;;14.80;;
71172;SDS011;58875;51.996;4.504;2023-06-22T12:07:36;15.33;;;15.33;;
71172;SDS011;58875;51.996;4.504;2023-06-22T12:10:02;17.10;;;17.10;;
71172;SDS011;58875;51.996;4.504;2023-06-22T12:12:28;17.69;;;17.69;;
71172;SDS011;58875;51.996;4.504;2023-06-22T12:14:56;17.92;;;17.92;;
71172;SDS011;58875;51.996;4.504;2023-06-22T12:17:28;17.15;;;17.15;;
71172;SDS011;58875;51.996;4.504;2023-06-22T12:20:17;16.84;;;16.84;;
71172;SDS011;58875;51.996;4.504;2023-06-22T12:22:43;16.28;;;16.28;;
71172;SDS011;58875;51.996;4.504;2023-06-22T12:25:09;15.89;;;15.89;;
71172;SDS011;58875;51.996;4.504;2023-06-22T12:27:38;15.55;;;15.55;;
71172;SDS011;58875;51.996;4.504;2023-06-22T12:30:10;17.75;;;17.75;;
71172;SDS011;58875;51.996;4.504;2023-06-22T12:32:36;19.50;;;19.50;;
71172;SDS011;58875;51.996;4.504;2023-06-22T12:35:09;23.01;;;23.01;;
71172;SDS011;58875;51.996;4.504;2023-06-22T12:37:41;23.93;;;23.92;;
71172;SDS011;58875;51.996;4.504;2023-06-22T12:40:07;24.13;;;24.13;;
71172;SDS011;58875;51.996;4.504;2023-06-22T12:42:34;22.93;;;22.93;;
71172;SDS011;58875;51.996;4.504;2023-06-22T12:45:02;22.68;;;22.68;;
71172;SDS011;58875;51.996;4.504;2023-06-22T12:47:29;22.43;;;22.43;;
71172;SDS011;58875;51.996;4.504;2023-06-22T12:49:54;22.94;;;22.94;;
71172;SDS011;58875;51.996;4.504;2023-06-22T12:52:23;22.88;;;22.88;;
71172;SDS011;58875;51.996;4.504;2023-06-22T12:54:49;22.09;;;22.06;;
71172;SDS011;58875;51.996;4.504;2023-06-22T12:57:20;21.91;;;21.91;;
71172;SDS011;58875;51.996;4.504;2023-06-22T12:59:45;22.77;;;22.77;;
71172;SDS011;58875;51.996;4.504;2023-06-22T13:02:14;22.68;;;22.65;;
71172;SDS011;58875;51.996;4.504;2023-06-22T13:04:40;22.03;;;21.96;;
71172;SDS011;58875;51.996;4.504;2023-06-22T13:07:06;21.57;;;21.57;;
71172;SDS011;58875;51.996;4.504;2023-06-22T13:09:31;22.59;;;22.59;;
71172;SDS011;58875;51.996;4.504;2023-06-22T13:11:57;21.32;;;21.32;;
71172;SDS011;58875;51.996;4.504;2023-06-22T13:14:24;20.84;;;20.84;;
71172;SDS011;58875;51.996;4.504;2023-06-22T13:16:50;21.98;;;21.98;;
71172;SDS011;58875;51.996;4.504;2023-06-22T13:19:16;23.37;;;23.37;;
71172;SDS011;58875;51.996;4.504;2023-06-22T13:21:41;22.97;;;22.97;;
71172;SDS011;58875;51.996;4.504;2023-06-22T13:24:07;23.82;;;23.82;;
71172;SDS011;58875;51.996;4.504;2023-06-22T13:26:33;23.74;;;23.74;;
71172;SDS011;58875;51.996;4.504;2023-06-22T13:28:58;23.03;;;23.03;;
71172;SDS011;58875;51.996;4.504;2023-06-22T13:31:24;24.00;;;24.00;;
71172;SDS011;58875;51.996;4.504;2023-06-22T13:33:50;23.56;;;23.56;;
71172;SDS011;58875;51.996;4.504;2023-06-22T13:36:17;23.25;;;23.25;;
71172;SDS011;58875;51.996;4.504;2023-06-22T13:38:43;25.04;;;25.04;;
71172;SDS011;58875;51.996;4.504;2023-06-22T13:41:09;24.40;;;24.40;;
71172;SDS011;58875;51.996;4.504;2023-06-22T13:43:34;23.13;;;23.13;;
71172;SDS011;58875;51.996;4.504;2023-06-22T13:46:00;23.47;;;23.47;;
71172;SDS011;58875;51.996;4.504;2023-06-22T13:48:25;23.15;;;23.15;;
71172;SDS011;58875;51.996;4.504;2023-06-22T13:50:53;24.11;;;24.11;;
71172;SDS011;58875;51.996;4.504;2023-06-22T13:53:19;23.99;;;23.99;;
71172;SDS011;58875;51.996;4.504;2023-06-22T13:55:45;24.99;;;24.99;;
71172;SDS011;58875;51.996;4.504;2023-06-22T13:58:11;25.11;;;25.11;;
71172;SDS011;58875;51.996;4.504;2023-06-22T14:00:37;25.73;;;25.73;;
71172;SDS011;58875;51.996;4.504;2023-06-22T14:03:02;26.21;;;26.21;;
71172;SDS011;58875;51.996;4.504;2023-06-22T14:05:28;25.66;;;25.66;;
71172;SDS011;58875;51.996;4.504;2023-06-22T14:07:53;25.17;;;25.17;;
71172;SDS011;58875;51.996;4.504;2023-06-22T14:10:19;25.25;;;25.25;;
71172;SDS011;58875;51.996;4.504;2023-06-22T14:12:45;25.03;;;25.03;;
71172;SDS011;58875;51.996;4.504;2023-06-22T14:15:10;25.33;;;25.33;;
71172;SDS011;58875;51.996;4.504;2023-06-22T14:17:36;25.44;;;25.44;;
71172;SDS011;58875;51.996;4.504;2023-06-22T14:20:02;24.60;;;24.60;;
71172;SDS011;58875;51.996;4.504;2023-06-22T14:22:28;24.46;;;24.46;;
71172;SDS011;58875;51.996;4.504;2023-06-22T14:24:54;24.77;;;24.77;;
71172;SDS011;58875;51.996;4.504;2023-06-22T14:27:22;24.97;;;24.97;;
71172;SDS011;58875;51.996;4.504;2023-06-22T14:29:48;24.60;;;24.60;;
71172;SDS011;58875;51.996;4.504;2023-06-22T14:32:18;24.73;;;24.73;;
71172;SDS011;58875;51.996;4.504;2023-06-22T14:34:46;24.93;;;24.93;;